AirNav   Air Wisconsin pilot careers
 
 1580 users online  

XA99 Flat Bush Airport
Decatur, Texas, USA

GOING TO DECATUR?


FAA INFORMATION EFFECTIVE 29 MARCH 2018

Location

FAA Identifier: XA99
Lat/Long: 33-08-03.7800N / 097-36-25.3800W
33-08.063000N / 097-36.423000W
33.1343833 / -97.6070500
(estimated)
Elevation: 862 ft. / 263 m (estimated)
From city: 7 miles S of DECATUR, TX
Time zone: UTC -5 (UTC -6 during Standard Time)
Zip code: 76023

Airport Operations

Airport use: Private use. Permission required prior to landing
Activation date: 05/2006
Control tower: no
ARTCC: FORT WORTH CENTER
FSS: FORT WORTH FLIGHT SERVICE STATION
Attendance: UNATNDD
Segmented circle: no

Airport Communications

WX AWOS-3 at LUD (7 nm N): 118.225 (940-627-2365)
WX AWOS-3 at XBP (11 nm W): 119.225 (940-683-8027)
WX ASOS at AFW (17 nm SE): PHONE 817-491-6188

Nearby radio navigation aids

VOR radial/distance  VOR name  Freq  Var
FUZr298/26.1RANGER VORTAC115.7006E
UKWr150/26.4BOWIE VORTAC112.4006E
MQPr030/31.4MILLSAP VORTAC117.7009E
TTTr293/32.6MAVERICK VOR/DME113.1006E
CVEr286/38.3COWBOY VOR/DME116.2006E

 
NDB name  Hdg/Dist  Freq  Var  ID
GRINDSTONE MOUNTAIN157/29.535607EGMZ --. -- --..

Airport Services

Runway Information

Runway 17/35

Dimensions: 2300 x 100 ft. / 701 x 30 m
Surface: turf
RUNWAY 17  RUNWAY 35
Traffic pattern: leftleft

Airport Ownership and Management from official FAA records

Ownership: Privately-owned
Owner: BRIAN TURNER
1111 CR 4380
DECATUR, TX 76234
Phone 817-614-0805
Manager: BRIAN TURNER
1111 CR 4380
DECATUR, TX 76234
Phone 817-614-0805

Instrument Procedures

There are no published instrument procedures at XA99.

Some nearby airports with instrument procedures:

KLUD - Decatur Municipal Airport (7 nm N)
4T2 - Kenneth Copeland Airport (11 nm SE)
KXBP - Bridgeport Municipal Airport (11 nm W)
KAFW - Fort Worth Alliance Airport (17 nm SE)
KDTO - Denton Enterprise Airport (21 nm E)
 
Loc | Ops | Rwys | IFR | FBO | Links
Com | Nav | Svcs | Stats | Notes

Lake Texoma Jet Center
AirBoss

 
Area around XA99 (Flat Bush Airport)
 
Road maps at: MapQuest Bing Google
 
Aerial photo
No photo
 
Sectional chart

 
Airport distance calculator
Flying to Flat Bush Airport? Find the distance to fly.

From to XA99

Sunrise and sunset
Times for 25-Apr-2018
 Local
(UTC-5)
 Zulu
(UTC)
Morning civil twilight06:2411:24
Sunrise06:5011:50
Sunset20:0701:07
Evening civil twilight20:3301:33

Current date and time
Zulu (UTC)  25-Apr-2018 14:46:40
Local (UTC-5)  25-Apr-2018 09:46:40
 
METAR
KLUD 
7nm N 
118.22 940-927-2365
251435Z AUTO 35007G15KT 10SM BKN010 BKN016 OVC048 11/09 A3018 RMK AO2 T01050090
KXBP 
11nm W 
251435Z AUTO 35012G20KT 10SM BKN016 OVC048 11/08 A3024 RMK AO2 LTG DSNT N AND NW T01140081
KAFW 
18nm SE 
251353Z 34011G21KT 10SM -RA FEW021 SCT050 BKN110 OVC250 13/09 A3016 RMK AO2 RAB51 PRESRR SLP208 P0000 T01330094
TAF
KAFW 
18nm SE 
251135Z 2512/2612 34010KT P6SM BKN050 FM251400 35017KT P6SM VCSH SCT015 BKN022 TEMPO 2515/2519 BKN015 FM251900 35014KT 4SM -SHRA VCTS SCT015CB BKN022 FM252200 34013KT P6SM FEW030
KFTW 
22nm SE 
251135Z 2512/2612 34010KT P6SM BKN050 FM251500 35017KT P6SM VCSH SCT015 BKN022 TEMPO 2516/2519 BKN015 FM252000 35014KT 4SM -SHRA VCTS SCT015CB BKN022 FM252300 34013KT P6SM FEW030
NOTAMs
Click for the latest NOTAMs
NOTAMs are issued by the DoD/FAA and will open in a separate window not controlled by AirNav.

 

 
 

Would you like to see your business listed on this page?

 If your business provides an interesting product or service to pilots, flight crews, aircraft, or users of the Flat Bush Airport, you should consider listing it here.  To start the listing process, click on the button below
 
Add a business
 

Other Pages about Flat Bush Airport

Update a link
 
Copyright © AirNav, LLC. All rights reserved. Privacy Policy  Contact